createdAt,value
2018-02-23T00:00:22.199Z,12.97
2018-02-23T00:02:49.322Z,14.40
2018-02-23T00:05:16.419Z,11.50
2018-02-23T00:07:47.192Z,9.60
2018-02-23T00:10:14.038Z,15.90
2018-02-23T00:12:40.928Z,10.50
2018-02-23T00:15:07.625Z,9.93
2018-02-23T00:17:34.440Z,10.10
2018-02-23T00:20:02.404Z,10.20
2018-02-23T00:22:35.160Z,11.00
2018-02-23T00:25:01.867Z,9.50
2018-02-23T00:27:29.422Z,10.83
2018-02-23T00:29:56.722Z,12.50
2018-02-23T00:32:23.366Z,19.17
2018-02-23T00:34:50.237Z,9.23
2018-02-23T00:37:16.970Z,9.13
2018-02-23T00:39:43.573Z,10.83
2018-02-23T00:42:10.204Z,12.47
2018-02-23T00:44:36.815Z,11.37
2018-02-23T00:47:03.439Z,9.80
2018-02-23T00:49:30.314Z,11.73
2018-02-23T00:51:56.939Z,12.10
2018-02-23T00:54:23.554Z,12.20
2018-02-23T00:56:50.260Z,10.00
2018-02-23T00:59:16.965Z,13.13
2018-02-23T01:01:43.560Z,9.93
2018-02-23T01:04:10.193Z,11.30
2018-02-23T01:06:36.957Z,14.20
2018-02-23T01:09:03.613Z,9.57
2018-02-23T01:11:31.140Z,11.10
2018-02-23T01:13:57.896Z,9.90
2018-02-23T01:16:24.603Z,9.77
2018-02-23T01:18:51.212Z,12.03
2018-02-23T01:21:18.228Z,8.13
2018-02-23T01:23:45.063Z,9.07
2018-02-23T01:26:11.751Z,8.67
2018-02-23T01:28:38.480Z,7.97
2018-02-23T01:31:05.485Z,10.23
2018-02-23T01:33:32.178Z,10.37
2018-02-23T01:35:58.872Z,8.53
2018-02-23T01:38:25.588Z,9.37
2018-02-23T01:40:52.195Z,8.43
2018-02-23T01:43:20.120Z,8.93
2018-02-23T01:45:46.754Z,7.90
2018-02-23T01:48:13.361Z,8.13
2018-02-23T01:50:45.867Z,9.80
2018-02-23T01:53:12.586Z,9.07
2018-02-23T01:55:39.261Z,7.90
2018-02-23T01:58:05.959Z,9.10
2018-02-23T02:00:32.805Z,10.03
2018-02-23T02:02:59.784Z,8.17
2018-02-23T02:05:26.455Z,9.33
2018-02-23T02:07:53.118Z,8.63
2018-02-23T02:10:20.924Z,10.50
2018-02-23T02:12:47.762Z,8.37
2018-02-23T02:15:14.384Z,9.33
2018-02-23T02:17:41.052Z,7.97
2018-02-23T02:20:07.702Z,8.13
2018-02-23T02:22:34.398Z,9.00
2018-02-23T02:25:01.570Z,8.83
2018-02-23T02:27:28.210Z,8.60
2018-02-23T02:29:54.828Z,8.77
2018-02-23T02:32:21.946Z,8.90
2018-02-23T02:34:48.542Z,8.37
2018-02-23T02:37:15.202Z,8.23
2018-02-23T02:39:41.784Z,7.80
2018-02-23T02:42:08.616Z,7.73
2018-02-23T02:44:35.431Z,10.00
2018-02-23T02:47:02.123Z,8.17
2018-02-23T02:49:29.101Z,8.50
2018-02-23T02:51:55.756Z,8.37
2018-02-23T02:54:22.464Z,8.30
2018-02-23T02:56:49.083Z,10.60
2018-02-23T02:59:15.680Z,9.57
2018-02-23T03:01:42.287Z,9.37
2018-02-23T03:04:08.877Z,9.73
2018-02-23T03:06:35.498Z,6.57
2018-02-23T03:09:02.103Z,10.07
2018-02-23T03:11:28.725Z,7.67
2018-02-23T03:13:55.328Z,8.43
2018-02-23T03:16:22.188Z,7.03
2018-02-23T03:18:48.913Z,12.50
2018-02-23T03:21:15.763Z,8.23
2018-02-23T03:23:42.399Z,11.37
2018-02-23T03:26:09.951Z,7.43
2018-02-23T03:28:37.321Z,7.10
2018-02-23T03:31:03.946Z,14.17
2018-02-23T03:33:30.548Z,10.93
2018-02-23T03:35:57.590Z,9.17
2018-02-23T03:38:24.579Z,8.33
2018-02-23T03:40:51.287Z,8.30
2018-02-23T03:43:17.891Z,7.20
2018-02-23T03:45:44.667Z,8.43
2018-02-23T03:48:12.299Z,7.40
2018-02-23T03:50:39.788Z,9.50
2018-02-23T03:53:06.394Z,8.80
2018-02-23T03:55:33.054Z,10.73
2018-02-23T03:58:00.328Z,10.40
2018-02-23T04:00:26.982Z,10.00
2018-02-23T04:02:53.575Z,9.70
2018-02-23T04:05:20.258Z,7.30
2018-02-23T04:07:46.800Z,8.13
2018-02-23T04:10:13.803Z,11.00
2018-02-23T04:12:40.419Z,7.30
2018-02-23T04:15:07.003Z,10.57
2018-02-23T04:17:33.618Z,8.43
2018-02-23T04:20:01.302Z,11.03
2018-02-23T04:22:27.962Z,7.00
2018-02-23T04:24:54.643Z,8.63
2018-02-23T04:27:21.324Z,8.73
2018-02-23T04:29:48.385Z,9.13
2018-02-23T04:32:15.119Z,8.30
2018-02-23T04:34:41.764Z,8.30
2018-02-23T04:37:08.360Z,6.70
2018-02-23T04:39:34.937Z,9.37
2018-02-23T04:42:01.559Z,6.90
2018-02-23T04:44:28.181Z,7.93
2018-02-23T04:46:54.787Z,7.30
2018-02-23T04:49:21.369Z,8.57
2018-02-23T04:51:48.006Z,11.07
2018-02-23T04:54:14.682Z,7.13
2018-02-23T04:56:41.265Z,8.10
2018-02-23T04:59:07.936Z,6.73
2018-02-23T05:01:35.670Z,12.90
2018-02-23T05:04:02.256Z,7.17
2018-02-23T05:06:28.852Z,6.60
2018-02-23T05:08:55.578Z,8.17
2018-02-23T05:11:22.388Z,7.60
2018-02-23T05:13:49.079Z,7.13
2018-02-23T05:16:15.817Z,6.73
2018-02-23T05:18:42.688Z,10.50
2018-02-23T05:21:10.605Z,7.00
2018-02-23T05:23:38.078Z,8.07
2018-02-23T05:26:05.138Z,7.67
2018-02-23T05:28:31.860Z,9.97
2018-02-23T05:30:59.105Z,7.37
2018-02-23T05:33:25.791Z,8.00
2018-02-23T05:35:52.360Z,9.17
2018-02-23T05:38:19.656Z,7.97
2018-02-23T05:40:46.550Z,8.37
2018-02-23T05:43:13.159Z,8.40
2018-02-23T05:45:39.782Z,8.83
2018-02-23T05:48:06.618Z,9.50
2018-02-23T05:50:33.242Z,11.83
2018-02-23T05:52:59.984Z,12.70
2018-02-23T05:55:27.101Z,14.50
2018-02-23T05:57:54.030Z,8.40
2018-02-23T06:00:20.948Z,8.77
2018-02-23T06:02:48.079Z,12.10
2018-02-23T06:05:14.672Z,10.03
2018-02-23T06:07:41.301Z,7.67
2018-02-23T06:10:08.147Z,8.10
2018-02-23T06:12:34.762Z,9.70
2018-02-23T06:15:01.393Z,7.77
2018-02-23T06:17:33.723Z,7.90
2018-02-23T06:20:06.055Z,11.17
2018-02-23T06:22:32.821Z,9.97
2018-02-23T06:24:59.417Z,8.57
2018-02-23T06:27:26.050Z,8.90
2018-02-23T06:29:52.848Z,10.83
2018-02-23T06:32:19.632Z,9.53
2018-02-23T06:34:46.291Z,9.17
2018-02-23T06:37:13.678Z,12.53
2018-02-23T06:39:40.332Z,15.80
2018-02-23T06:42:06.973Z,9.33
2018-02-23T06:44:33.647Z,13.87
2018-02-23T06:47:06.039Z,13.23
2018-02-23T06:49:32.676Z,9.03
2018-02-23T06:51:59.291Z,7.93
2018-02-23T06:54:26.051Z,8.10
2018-02-23T06:56:52.774Z,8.83
2018-02-23T06:59:19.885Z,11.57
2018-02-23T07:01:46.669Z,13.33
2018-02-23T07:04:13.251Z,8.60
2018-02-23T07:06:40.662Z,10.50
2018-02-23T07:09:07.266Z,8.33
2018-02-23T07:11:34.046Z,9.53
2018-02-23T07:14:00.783Z,11.20
2018-02-23T07:16:27.513Z,9.80
2018-02-23T07:18:54.104Z,11.87
2018-02-23T07:21:20.840Z,11.90
2018-02-23T07:23:47.674Z,12.73
2018-02-23T07:26:14.836Z,9.87
2018-02-23T07:28:41.509Z,12.07
2018-02-23T07:31:08.170Z,8.90
2018-02-23T07:33:35.316Z,7.70
2018-02-23T07:36:01.904Z,8.53
2018-02-23T07:38:28.799Z,7.97
2018-02-23T07:40:55.495Z,7.50
2018-02-23T07:43:22.118Z,10.33
2018-02-23T07:45:48.726Z,7.97
2018-02-23T07:48:15.424Z,11.33
2018-02-23T07:50:42.536Z,7.17
2018-02-23T07:53:09.143Z,7.90
2018-02-23T07:55:35.827Z,12.50
2018-02-23T07:58:02.693Z,7.57
2018-02-23T08:00:29.322Z,10.50
2018-02-23T08:02:56.039Z,8.80
2018-02-23T08:05:23.428Z,12.37
2018-02-23T08:07:50.172Z,10.57
2018-02-23T08:10:16.780Z,11.93
2018-02-23T08:12:43.488Z,13.30
2018-02-23T08:15:10.666Z,15.33
2018-02-23T08:17:37.452Z,8.37
2018-02-23T08:20:04.181Z,15.20
2018-02-23T08:22:30.816Z,20.30
2018-02-23T08:24:57.555Z,18.10
2018-02-23T08:27:24.783Z,19.73
2018-02-23T08:29:51.416Z,11.90
2018-02-23T08:32:18.146Z,17.50
2018-02-23T08:34:44.857Z,16.50
2018-02-23T08:37:11.516Z,19.30
2018-02-23T08:39:38.173Z,17.03
2018-02-23T08:42:04.839Z,19.63
2018-02-23T08:44:31.653Z,15.00
2018-02-23T08:46:58.540Z,17.37
2018-02-23T08:49:25.208Z,22.30
2018-02-23T08:51:52.470Z,16.30
2018-02-23T08:54:19.116Z,12.80
2018-02-23T08:56:45.763Z,22.67
2018-02-23T08:59:12.402Z,20.10
2018-02-23T09:01:39.087Z,20.83
2018-02-23T09:04:05.797Z,20.63
2018-02-23T09:06:32.644Z,15.60
2018-02-23T09:08:59.858Z,18.20
2018-02-23T09:11:26.504Z,24.53
2018-02-23T09:13:53.113Z,17.47
2018-02-23T09:16:19.729Z,24.23
2018-02-23T09:18:46.422Z,24.13
2018-02-23T09:21:13.193Z,15.00
2018-02-23T09:23:39.779Z,17.47
2018-02-23T09:26:06.697Z,22.17
2018-02-23T09:28:33.396Z,20.13
2018-02-23T09:31:00.102Z,20.77
2018-02-23T09:33:32.562Z,20.50
2018-02-23T09:35:59.194Z,26.60
2018-02-23T09:38:25.991Z,23.20
2018-02-23T09:40:52.577Z,18.20
2018-02-23T09:43:19.211Z,18.83
2018-02-23T09:45:45.803Z,16.37
2018-02-23T09:48:12.494Z,15.27
2018-02-23T09:50:39.255Z,18.20
2018-02-23T09:53:05.874Z,19.10
2018-02-23T09:55:32.528Z,18.53
2018-02-23T09:57:59.247Z,16.77
2018-02-23T10:00:25.885Z,20.43
2018-02-23T10:02:52.486Z,17.50
2018-02-23T10:05:19.216Z,17.53
2018-02-23T10:07:45.815Z,25.50
2018-02-23T10:10:12.445Z,16.87
2018-02-23T10:12:39.078Z,17.57
2018-02-23T10:15:05.713Z,20.40
2018-02-23T10:17:32.399Z,19.77
2018-02-23T10:19:59.022Z,16.20
2018-02-23T10:22:25.648Z,19.60
2018-02-23T10:24:52.283Z,22.60
2018-02-23T10:27:18.900Z,18.70
2018-02-23T10:29:45.520Z,12.17
2018-02-23T10:32:12.140Z,14.67
2018-02-23T10:34:38.789Z,18.57
2018-02-23T10:37:05.424Z,20.83
2018-02-23T10:39:32.040Z,23.10
2018-02-23T10:41:58.711Z,16.13
2018-02-23T10:44:25.377Z,16.40
2018-02-23T10:46:51.995Z,17.00
2018-02-23T10:49:18.602Z,25.30
2018-02-23T10:51:45.253Z,16.20
2018-02-23T10:54:11.846Z,23.60
2018-02-23T10:56:38.455Z,21.27
2018-02-23T10:59:05.059Z,15.07
2018-02-23T11:01:31.679Z,18.87
2018-02-23T11:03:58.326Z,23.23
2018-02-23T11:06:24.949Z,20.90
2018-02-23T11:08:51.641Z,21.53
2018-02-23T11:11:18.305Z,25.50
2018-02-23T11:13:44.963Z,25.50
2018-02-23T11:16:11.626Z,21.73
2018-02-23T11:18:38.250Z,18.10
2018-02-23T11:21:04.895Z,22.60
2018-02-23T11:23:31.594Z,30.30
2018-02-23T11:25:58.463Z,18.77
2018-02-23T11:28:25.099Z,18.23
2018-02-23T11:30:51.765Z,22.70
2018-02-23T11:33:18.377Z,19.17
2018-02-23T11:35:45.146Z,20.23
2018-02-23T11:38:11.784Z,21.63
2018-02-23T11:40:38.400Z,20.10
2018-02-23T11:43:05.010Z,18.93
2018-02-23T11:45:31.780Z,20.93
2018-02-23T11:47:58.372Z,20.80
2018-02-23T11:50:25.088Z,22.87
2018-02-23T11:52:51.667Z,23.20
2018-02-23T11:55:18.262Z,26.60
2018-02-23T11:57:44.885Z,22.13
2018-02-23T12:00:11.506Z,20.70
2018-02-23T12:02:38.165Z,23.87
2018-02-23T12:05:04.830Z,23.43
2018-02-23T12:07:31.439Z,21.67
2018-02-23T12:09:58.219Z,30.00
2018-02-23T12:12:24.853Z,28.50
2018-02-23T12:14:51.505Z,24.17
2018-02-23T12:17:18.128Z,23.83
2018-02-23T12:19:44.745Z,26.33
2018-02-23T12:22:11.341Z,25.60
2018-02-23T12:24:37.977Z,25.67
2018-02-23T12:27:04.628Z,25.60
2018-02-23T12:29:31.272Z,25.00
2018-02-23T12:31:57.874Z,32.13
2018-02-23T12:34:24.553Z,25.13
2018-02-23T12:36:51.239Z,27.47
2018-02-23T12:39:17.844Z,24.40
2018-02-23T12:41:44.572Z,25.47
2018-02-23T12:44:11.216Z,29.50
2018-02-23T12:46:37.812Z,26.03
2018-02-23T12:49:04.729Z,25.67
2018-02-23T12:51:31.599Z,26.50
2018-02-23T12:53:58.221Z,24.60
2018-02-23T12:56:24.872Z,25.87
2018-02-23T12:58:51.469Z,19.33
2018-02-23T13:01:18.080Z,22.27
2018-02-23T13:03:44.716Z,25.43
2018-02-23T13:06:11.373Z,21.83
2018-02-23T13:08:37.992Z,24.83
2018-02-23T13:11:04.651Z,28.57
2018-02-23T13:13:31.280Z,24.93
2018-02-23T13:15:57.913Z,26.73
2018-02-23T13:18:24.521Z,25.20
2018-02-23T13:20:51.191Z,23.03
2018-02-23T13:23:17.833Z,24.93
2018-02-23T13:25:44.444Z,24.70
2018-02-23T13:28:16.742Z,18.83
2018-02-23T13:30:43.366Z,19.93
2018-02-23T13:33:10.050Z,30.70
2018-02-23T13:35:36.660Z,28.20
2018-02-23T13:38:03.289Z,33.80
2018-02-23T13:40:30.787Z,22.50
2018-02-23T13:42:57.396Z,27.13
2018-02-23T13:45:24.219Z,27.47
2018-02-23T13:47:50.853Z,24.20
2018-02-23T13:50:17.495Z,25.13
2018-02-23T13:52:44.131Z,29.50
2018-02-23T13:55:11.026Z,32.77
2018-02-23T13:57:37.697Z,19.97
2018-02-23T14:00:04.299Z,27.57
2018-02-23T14:02:31.098Z,29.80
2018-02-23T14:04:57.709Z,28.73
2018-02-23T14:07:39.242Z,19.60
2018-02-23T14:10:05.874Z,36.00
2018-02-23T14:12:32.549Z,26.73
2018-02-23T14:14:59.394Z,23.60
2018-02-23T14:17:26.098Z,27.63
2018-02-23T14:19:52.776Z,29.13
2018-02-23T14:22:19.437Z,28.23
2018-02-23T14:24:46.082Z,25.40
2018-02-23T14:27:12.665Z,26.27
2018-02-23T14:29:39.312Z,29.10
2018-02-23T14:32:05.903Z,32.00
2018-02-23T14:34:32.605Z,30.23
2018-02-23T14:36:59.177Z,22.60
2018-02-23T14:39:25.823Z,26.30
2018-02-23T14:41:52.461Z,28.20
2018-02-23T14:44:19.114Z,23.17
2018-02-23T14:46:45.778Z,22.03
2018-02-23T14:49:17.277Z,25.30
2018-02-23T14:51:43.905Z,24.60
2018-02-23T14:54:10.509Z,23.87
2018-02-23T14:56:37.144Z,20.57
2018-02-23T14:59:03.863Z,21.37
2018-02-23T15:01:30.471Z,27.90
2018-02-23T15:03:57.298Z,23.57
2018-02-23T15:06:23.926Z,23.50
2018-02-23T15:08:50.578Z,23.90
2018-02-23T15:11:17.182Z,21.93
2018-02-23T15:13:43.840Z,22.40
2018-02-23T15:16:10.494Z,24.60
2018-02-23T15:18:37.132Z,27.63
2018-02-23T15:21:03.752Z,17.47
2018-02-23T15:23:30.823Z,21.20
2018-02-23T15:25:57.561Z,18.30
2018-02-23T15:28:24.207Z,23.97
2018-02-23T15:30:56.840Z,23.93
2018-02-23T15:33:23.696Z,20.70
2018-02-23T15:35:50.490Z,25.13
2018-02-23T15:38:17.109Z,25.00
2018-02-23T15:40:43.829Z,27.10
2018-02-23T15:43:10.549Z,25.37
2018-02-23T15:45:37.147Z,18.93
2018-02-23T15:48:11.706Z,18.47
2018-02-23T15:50:54.066Z,21.67
2018-02-23T15:53:20.727Z,21.20
2018-02-23T15:55:47.450Z,22.57
2018-02-23T15:58:30.652Z,18.03
2018-02-23T16:00:57.398Z,25.23
2018-02-23T16:03:23.961Z,19.30
2018-02-23T16:05:50.555Z,21.77
2018-02-23T16:08:17.151Z,22.73
2018-02-23T16:10:43.768Z,21.93
2018-02-23T16:13:10.586Z,26.17
2018-02-23T16:15:37.281Z,24.60
2018-02-23T16:18:04.084Z,16.67
2018-02-23T16:20:30.721Z,22.70
2018-02-23T16:22:57.561Z,21.73
2018-02-23T16:25:24.790Z,25.40
2018-02-23T16:27:51.428Z,22.27
2018-02-23T16:30:18.144Z,37.30
2018-02-23T16:32:44.815Z,21.13
2018-02-23T16:35:11.507Z,20.80
2018-02-23T16:37:38.198Z,16.73
2018-02-23T16:40:04.873Z,20.77
2018-02-23T16:42:31.492Z,27.50
2018-02-23T16:44:58.190Z,17.30
2018-02-23T16:47:24.918Z,16.43
2018-02-23T16:49:51.477Z,17.43
2018-02-23T16:52:18.376Z,17.77
2018-02-23T16:54:44.981Z,22.13
2018-02-23T16:57:11.742Z,31.97
2018-02-23T16:59:38.343Z,40.40
2018-02-23T17:02:04.970Z,22.30
2018-02-23T17:04:31.642Z,22.33
2018-02-23T17:06:58.326Z,20.80
2018-02-23T17:09:24.927Z,23.07
2018-02-23T17:11:51.621Z,29.63
2018-02-23T17:14:18.258Z,23.97
2018-02-23T17:16:44.911Z,22.00
2018-02-23T17:19:11.515Z,25.37
2018-02-23T17:21:38.152Z,20.67
2018-02-23T17:24:04.799Z,29.03
2018-02-23T17:26:31.481Z,23.10
2018-02-23T17:28:58.115Z,24.90
2018-02-23T17:31:24.727Z,23.07
2018-02-23T17:33:51.416Z,29.00
2018-02-23T17:36:18.058Z,25.73
2018-02-23T17:38:44.757Z,23.37
2018-02-23T17:41:11.509Z,27.70
2018-02-23T17:43:38.100Z,28.03
2018-02-23T17:46:04.724Z,27.77
2018-02-23T17:48:31.371Z,30.03
2018-02-23T17:50:58.258Z,33.80
2018-02-23T17:53:24.862Z,22.90
2018-02-23T17:55:51.482Z,34.03
2018-02-23T17:58:18.150Z,27.60
2018-02-23T18:00:44.780Z,39.80
2018-02-23T18:03:11.640Z,26.73
2018-02-23T18:05:38.415Z,27.67
2018-02-23T18:08:05.051Z,27.70
2018-02-23T18:10:31.700Z,26.10
2018-02-23T18:12:58.300Z,27.10
2018-02-23T18:15:24.917Z,34.43
2018-02-23T18:17:51.561Z,29.73
2018-02-23T18:20:18.149Z,34.13
2018-02-23T18:22:44.810Z,34.13
2018-02-23T18:25:11.692Z,36.20
2018-02-23T18:27:38.313Z,36.10
2018-02-23T18:30:05.931Z,36.30
2018-02-23T18:32:32.687Z,55.03
2018-02-23T18:34:59.431Z,40.27
2018-02-23T18:37:26.085Z,31.63
2018-02-23T18:39:52.716Z,40.60
2018-02-23T18:42:19.333Z,39.80
2018-02-23T18:44:46.873Z,38.43
2018-02-23T18:47:13.492Z,38.87
2018-02-23T18:49:40.169Z,33.80
2018-02-23T18:52:06.832Z,37.97
2018-02-23T18:54:34.122Z,40.87
2018-02-23T18:57:00.785Z,31.37
2018-02-23T18:59:27.422Z,29.37
2018-02-23T19:01:54.695Z,34.70
2018-02-23T19:04:21.344Z,38.17
2018-02-23T19:06:48.953Z,38.10
2018-02-23T19:09:15.582Z,37.63
2018-02-23T19:11:42.262Z,35.50
2018-02-23T19:14:08.890Z,29.87
2018-02-23T19:16:35.539Z,36.07
2018-02-23T19:19:02.162Z,34.40
2018-02-23T19:21:28.899Z,32.10
2018-02-23T19:23:55.606Z,37.83
2018-02-23T19:26:22.361Z,41.93
2018-02-23T19:28:49.741Z,33.50
2018-02-23T19:31:16.448Z,31.73
2018-02-23T19:33:43.047Z,39.50
2018-02-23T19:36:09.664Z,42.03
2018-02-23T19:38:36.381Z,37.07
2018-02-23T19:41:03.031Z,29.43
2018-02-23T19:43:29.672Z,32.43
2018-02-23T19:45:56.336Z,44.93
2018-02-23T19:48:22.953Z,38.50
2018-02-23T19:50:49.625Z,33.73
2018-02-23T19:53:16.523Z,44.30
2018-02-23T19:55:43.186Z,37.50
2018-02-23T19:58:09.811Z,40.77
2018-02-23T20:00:36.456Z,36.43
2018-02-23T20:03:03.181Z,38.20
2018-02-23T20:05:29.820Z,38.20
2018-02-23T20:07:56.528Z,36.70
2018-02-23T20:10:23.264Z,43.47
2018-02-23T20:12:50.053Z,39.77
2018-02-23T20:15:16.648Z,42.07
2018-02-23T20:17:43.305Z,42.93
2018-02-23T20:20:09.922Z,38.47
2018-02-23T20:22:36.570Z,42.03
2018-02-23T20:25:03.244Z,43.07
2018-02-23T20:27:29.917Z,44.77
2018-02-23T20:29:56.526Z,46.60
2018-02-23T20:32:23.182Z,45.53
2018-02-23T20:34:49.815Z,40.33
2018-02-23T20:37:16.420Z,52.23
2018-02-23T20:39:43.053Z,45.80
2018-02-23T20:42:09.708Z,49.37
2018-02-23T20:44:36.511Z,36.77
2018-02-23T20:47:03.106Z,41.67
2018-02-23T20:49:29.725Z,40.47
2018-02-23T20:51:56.373Z,48.50
2018-02-23T20:54:23.588Z,44.20
2018-02-23T20:56:50.230Z,43.00
2018-02-23T20:59:16.905Z,39.83
2018-02-23T21:01:43.628Z,36.87
2018-02-23T21:04:10.220Z,46.73
2018-02-23T21:06:37.082Z,44.97
2018-02-23T21:09:03.711Z,44.30
2018-02-23T21:11:30.486Z,43.07
2018-02-23T21:13:57.122Z,47.47
2018-02-23T21:16:24.190Z,40.53
2018-02-23T21:18:51.021Z,44.33
2018-02-23T21:21:17.826Z,58.83
2018-02-23T21:23:44.703Z,44.03
2018-02-23T21:26:12.445Z,43.70
2018-02-23T21:28:39.361Z,53.03
2018-02-23T21:31:06.282Z,47.83
2018-02-23T21:33:33.521Z,50.63
2018-02-23T21:36:00.381Z,52.83
2018-02-23T21:38:27.367Z,45.63
2018-02-23T21:40:54.273Z,43.70
2018-02-23T21:46:13.519Z,45.70
2018-02-23T21:48:40.283Z,48.23
2018-02-23T21:51:06.953Z,51.10
2018-02-23T21:53:33.581Z,50.93
2018-02-23T21:56:00.269Z,44.10
2018-02-23T21:58:26.896Z,43.27
2018-02-23T22:00:53.545Z,50.93
2018-02-23T22:03:20.212Z,49.60
2018-02-23T22:05:47.178Z,34.83
2018-02-23T22:08:13.806Z,49.97
2018-02-23T22:10:40.616Z,45.90
2018-02-23T22:13:07.209Z,47.47
2018-02-23T22:15:33.997Z,45.63
2018-02-23T22:18:00.837Z,46.90
2018-02-23T22:20:27.462Z,42.90
2018-02-23T22:22:54.125Z,46.07
2018-02-23T22:25:20.809Z,56.47
2018-02-23T22:27:47.479Z,48.10
2018-02-23T22:30:14.115Z,43.90
2018-02-23T22:32:40.771Z,48.70
2018-02-23T22:35:07.347Z,46.40
2018-02-23T22:37:33.968Z,51.63
2018-02-23T22:40:00.587Z,42.30
2018-02-23T22:42:27.197Z,47.23
2018-02-23T22:44:53.831Z,43.93
2018-02-23T22:47:20.426Z,48.93
2018-02-23T22:49:47.067Z,46.50
2018-02-23T22:52:13.708Z,41.50
2018-02-23T22:54:40.318Z,37.20
2018-02-23T22:57:06.931Z,43.40
2018-02-23T22:59:33.624Z,39.57
2018-02-23T23:02:00.243Z,36.27
2018-02-23T23:04:26.936Z,43.00
2018-02-23T23:06:53.507Z,40.93
2018-02-23T23:09:20.146Z,38.70
2018-02-23T23:11:46.859Z,41.73
2018-02-23T23:14:13.503Z,42.97
2018-02-23T23:16:40.141Z,36.20
2018-02-23T23:19:06.844Z,40.27
2018-02-23T23:21:34.459Z,41.33
2018-02-23T23:24:01.072Z,37.97
2018-02-23T23:26:27.704Z,34.53
2018-02-23T23:28:54.324Z,41.13
2018-02-23T23:31:20.943Z,44.20
2018-02-23T23:33:47.544Z,41.07
2018-02-23T23:36:14.160Z,34.90
2018-02-23T23:38:40.774Z,39.13
2018-02-23T23:41:07.411Z,39.30
2018-02-23T23:43:34.006Z,43.53
2018-02-23T23:46:00.655Z,35.07
2018-02-23T23:48:27.260Z,41.40
2018-02-23T23:50:53.903Z,38.57
2018-02-23T23:53:20.533Z,36.57
2018-02-23T23:55:47.178Z,38.87
2018-02-23T23:58:13.815Z,39.83
